Pagrindinis puslapis
METAR-TAF:

METAR-TAF

Oro uostai :

Saporas, Japonija

platuma: 43-07N, ilguma: 141-23E, Aukštis: 8 m

Dabartinis oras

Ataskaita buvo paskelbta 1 valandą ir 55 minutes, ne 11:00 UTC
Vėjas 1 kt iš Šiaurės/Šiaurės Vakarų
Temperatūra -2°C
Drėgmė 86%
Slėgis 1022 hPa
Matomumas 10 km arba daugiau
Mažai debesys ne aukštis 1500 ft
Su prošvaistėmis ne aukštis 4000 ft

METAR: RJCO 251100Z 34001KT 9999 FEW015 BKN040 M02/M04 Q1022

Laikas: 21:55 (12:55 UTC)


TAF: trūkstamas

Orai ataskaitas ir orų prognozės (METAR, TAF).

turimą stotys yra geltonos ir raudonos taškus žemėlapyje.

Perkelti pele per norėdami pamatyti stoties vardą.

Tada spustelėkite, norėdami matyti oro stebėjimo ir prognozės.

Norėdami pakeisti žemėlapį: spustelėkite ant žalios mygtukų su juodo kryžiaus žemyn,; žalią mygtuką su brūkšneliu, jei norite nutolinti; arba žalių rodyklių gretimoms žemėlapius.


METAR-TAF: